Time;durP1;ratioP1;P1;durP2;ratioP2;P2;SDS_P1;SDS_P2;PMS_P1;PMS_P2;Temp;Humidity;BMP_temperature;BMP_pressure;BME280_temperature;BME280_humidity;BME280_pressure;Samples;Min_cycle;Max_cycle;Signal;HPM_P1;HPM_P2
2021/01/24 00:01:59;;;;;;;9.03;8.13;;;5.00;94.40;;;;;;4995632;28;20231;-65
2021/01/24 00:04:26;;;;;;;8.87;6.90;;;5.00;94.50;;;;;;4996026;28;20537;-65
2021/01/24 00:06:52;;;;;;;9.80;8.80;;;4.90;94.40;;;;;;4995240;28;20219;-65
2021/01/24 00:09:19;;;;;;;13.40;10.23;;;4.90;94.30;;;;;;4996250;28;20261;-65
2021/01/24 00:11:45;;;;;;;12.23;10.97;;;4.90;94.30;;;;;;5010983;28;21503;-65
2021/01/24 00:14:12;;;;;;;12.33;10.50;;;4.80;94.20;;;;;;4996014;28;20216;-65
2021/01/24 00:16:38;;;;;;;17.73;11.33;;;4.70;94.20;;;;;;4996193;28;20220;-65
2021/01/24 00:19:07;;;;;;;12.57;9.67;;;4.70;94.10;;;;;;4994657;28;20228;-65
2021/01/24 00:21:33;;;;;;;12.83;10.13;;;4.50;93.60;;;;;;4996161;28;20227;-65
2021/01/24 00:24:00;;;;;;;14.20;11.60;;;4.30;93.70;;;;;;4995187;28;20208;-65
2021/01/24 00:26:27;;;;;;;15.60;12.50;;;4.30;94.10;;;;;;4996014;28;20224;-65
2021/01/24 00:28:54;;;;;;;15.90;11.83;;;4.30;94.10;;;;;;4996167;28;20624;-66
2021/01/24 00:31:20;;;;;;;15.00;12.30;;;4.20;94.20;;;;;;4994855;28;20240;-65
2021/01/24 00:33:47;;;;;;;15.47;12.47;;;4.30;94.40;;;;;;5009582;28;20243;-65
2021/01/24 00:36:16;;;;;;;20.03;12.00;;;4.20;94.40;;;;;;5014668;28;20215;-65
2021/01/24 00:38:42;;;;;;;15.97;12.63;;;4.20;94.50;;;;;;5013478;28;20247;-65
2021/01/24 00:41:09;;;;;;;16.83;13.67;;;4.20;94.60;;;;;;5010375;28;20666;-65
2021/01/24 00:43:35;;;;;;;19.70;14.97;;;4.30;94.70;;;;;;5014963;28;20647;-65
2021/01/24 00:46:02;;;;;;;19.23;13.73;;;4.30;94.80;;;;;;5014916;28;20223;-65
2021/01/24 00:48:37;;;;;;;22.23;15.43;;;4.30;94.80;;;;;;5014907;28;20212;-65
2021/01/24 00:51:05;;;;;;;28.50;17.60;;;4.40;94.90;;;;;;5010339;28;20238;-65
2021/01/24 00:53:32;;;;;;;31.50;18.87;;;4.40;95.00;;;;;;5008392;28;20212;-65
2021/01/24 00:55:59;;;;;;;98.63;22.33;;;4.50;95.10;;;;;;5010527;28;20301;-65
2021/01/24 00:58:26;;;;;;;424.37;42.33;;;4.60;95.00;;;;;;5014889;28;20227;-65
2021/01/24 01:00:52;;;;;;;271.23;31.80;;;4.70;95.00;;;;;;5009934;28;20212;-65
2021/01/24 01:03:19;;;;;;;356.43;35.33;;;4.70;95.00;;;;;;5012099;28;20231;-65
2021/01/24 01:05:46;;;;;;;197.03;26.10;;;4.80;95.00;;;;;;4997384;28;20230;-65
2021/01/24 01:08:13;;;;;;;401.37;45.87;;;4.80;94.90;;;;;;5013841;28;20220;-65
2021/01/24 01:10:40;;;;;;;678.20;65.87;;;4.80;94.80;;;;;;5014781;28;20212;-65
2021/01/24 01:13:07;;;;;;;381.83;42.50;;;4.80;94.90;;;;;;5014632;28;20219;-65
2021/01/24 01:15:34;;;;;;;414.13;44.77;;;4.80;94.90;;;;;;5013439;28;20235;-65
2021/01/24 01:18:01;;;;;;;529.80;60.37;;;4.90;95.00;;;;;;5014557;28;20509;-65
2021/01/24 01:20:28;;;;;;;326.97;42.03;;;4.90;94.90;;;;;;5014744;28;20266;-65
2021/01/24 01:22:54;;;;;;;269.67;34.00;;;4.90;94.90;;;;;;5014894;28;20204;-65
2021/01/24 01:25:21;;;;;;;370.07;45.40;;;4.80;94.90;;;;;;5014874;28;20219;-65
2021/01/24 01:27:48;;;;;;;331.80;41.30;;;4.90;95.00;;;;;;5009324;28;20204;-65
2021/01/24 01:30:15;;;;;;;358.03;45.10;;;4.80;95.00;;;;;;5012080;28;20211;-65
2021/01/24 01:32:41;;;;;;;409.70;51.10;;;4.80;95.10;;;;;;5012815;28;20246;-65
2021/01/24 01:35:09;;;;;;;320.77;43.20;;;4.80;95.10;;;;;;5014185;28;20657;-65
2021/01/24 01:37:36;;;;;;;296.90;40.90;;;4.80;95.20;;;;;;5014211;28;20200;-66
2021/01/24 01:40:05;;;;;;;472.23;51.23;;;4.90;95.20;;;;;;5013591;28;20239;-66
2021/01/24 01:42:31;;;;;;;254.93;36.77;;;4.90;95.30;;;;;;5015028;28;20215;-66
2021/01/24 01:44:58;;;;;;;323.43;43.40;;;4.90;95.30;;;;;;5014696;28;20208;-66
2021/01/24 01:47:26;;;;;;;250.60;40.73;;;5.00;95.30;;;;;;5013859;28;20223;-66
2021/01/24 01:49:57;;;;;;;773.13;79.90;;;4.90;95.30;;;;;;5012731;28;20256;-66
2021/01/24 01:52:29;;;;;;;256.03;35.33;;;5.00;95.30;;;;;;5013898;28;20212;-65
2021/01/24 01:54:57;;;;;;;347.67;45.27;;;5.00;95.30;;;;;;5012623;28;20215;-65
2021/01/24 01:57:25;;;;;;;666.37;79.37;;;5.10;95.30;;;;;;5012907;28;20218;-66
2021/01/24 01:59:52;;;;;;;585.77;62.87;;;5.10;95.30;;;;;;5013780;28;20698;-65
2021/01/24 02:02:40;;;;;;;419.47;44.97;;;5.10;95.30;;;;;;5011966;28;20203;-66
2021/01/24 02:05:28;;;;;;;750.63;77.53;;;5.00;95.20;;;;;;5012963;28;20291;-66
2021/01/24 02:08:16;;;;;;;635.40;69.50;;;5.00;95.30;;;;;;5014042;28;20219;-65
2021/01/24 02:10:58;;;;;;;411.07;50.37;;;5.10;95.30;;;;;;5013098;28;20203;-66
2021/01/24 02:13:54;;;;;;;595.43;66.60;;;5.00;95.20;;;;;;5005919;28;20219;-65
2021/01/24 02:16:21;;;;;;;378.50;47.83;;;5.00;95.20;;;;;;5012619;28;20533;-66
2021/01/24 02:18:51;;;;;;;382.67;46.37;;;5.00;95.20;;;;;;5012700;28;20298;-66
2021/01/24 02:21:36;;;;;;;598.63;73.13;;;5.00;95.20;;;;;;5011605;28;20226;-66
2021/01/24 02:24:06;;;;;;;294.03;47.67;;;5.00;95.30;;;;;;5014454;28;20210;-66
2021/01/24 02:26:53;;;;;;;316.07;46.23;;;5.00;95.30;;;;;;5013326;28;20200;-66
2021/01/24 02:29:42;;;;;;;437.10;52.33;;;5.00;95.40;;;;;;5010169;28;20219;-65
2021/01/24 02:32:09;;;;;;;474.73;55.30;;;5.10;95.30;;;;;;5013432;28;20222;-66
2021/01/24 02:34:38;;;;;;;325.27;47.13;;;5.10;95.40;;;;;;4993209;28;20210;-66
2021/01/24 02:37:06;;;;;;;509.47;63.77;;;5.10;95.30;;;;;;4993058;28;20204;-66
2021/01/24 02:39:34;;;;;;;529.00;66.00;;;5.10;95.30;;;;;;4978707;28;20574;-66
2021/01/24 02:42:01;;;;;;;732.40;79.23;;;5.10;95.30;;;;;;4992698;28;20554;-66
2021/01/24 02:44:28;;;;;;;704.50;79.77;;;5.10;95.30;;;;;;4991430;28;20208;-66
2021/01/24 02:46:58;;;;;;;576.17;71.13;;;5.10;95.40;;;;;;4993831;28;20223;-66
2021/01/24 02:49:30;;;;;;;441.27;58.97;;;5.20;95.40;;;;;;4993622;28;20210;-66
2021/01/24 02:51:58;;;;;;;704.73;79.80;;;5.20;95.40;;;;;;4992535;28;20219;-66
2021/01/24 02:54:27;;;;;;;702.67;79.73;;;5.20;95.40;;;;;;4993029;28;20236;-66
2021/01/24 02:56:54;;;;;;;623.90;74.47;;;5.20;95.50;;;;;;4993776;28;20212;-66
2021/01/24 02:59:21;;;;;;;541.43;70.40;;;5.20;95.40;;;;;;5007737;28;20660;-66
2021/01/24 03:01:48;;;;;;;623.23;76.87;;;5.20;95.40;;;;;;4993346;28;20224;-66
2021/01/24 03:04:15;;;;;;;718.20;83.23;;;5.30;95.50;;;;;;4993031;28;20212;-66
2021/01/24 03:06:41;;;;;;;603.20;72.20;;;5.20;95.40;;;;;;4990663;28;20215;-66
2021/01/24 03:09:08;;;;;;;531.63;70.20;;;5.20;95.40;;;;;;4993141;28;20518;-65
2021/01/24 03:11:40;;;;;;;611.53;71.60;;;5.20;95.50;;;;;;4992627;28;20215;-66
2021/01/24 03:14:23;;;;;;;579.33;59.00;;;5.10;95.50;;;;;;4988046;28;20212;-66
2021/01/24 03:16:53;;;;;;;510.27;61.67;;;5.10;95.50;;;;;;4993015;28;20231;-66
2021/01/24 03:19:21;;;;;;;490.50;64.93;;;5.00;95.60;;;;;;4991380;28;20684;-66
2021/01/24 03:21:50;;;;;;;361.47;54.87;;;5.00;95.70;;;;;;4992020;28;20552;-66
2021/01/24 03:24:22;;;;;;;527.87;66.90;;;5.00;95.70;;;;;;4992283;28;20224;-66
2021/01/24 03:26:50;;;;;;;373.87;50.17;;;5.00;95.80;;;;;;5008717;28;20208;-66
2021/01/24 03:29:17;;;;;;;551.13;70.37;;;5.00;95.80;;;;;;5004015;28;20218;-66
2021/01/24 03:31:45;;;;;;;256.13;44.23;;;5.10;95.90;;;;;;4996411;28;20655;-66
2021/01/24 03:34:21;;;;;;;522.70;73.70;;;5.10;95.90;;;;;;5013133;28;20326;-66
2021/01/24 03:36:51;;;;;;;378.07;58.83;;;5.10;95.80;;;;;;5016249;28;20215;-66
2021/01/24 03:39:18;;;;;;;701.20;83.03;;;5.10;95.80;;;;;;5016747;28;20231;-66
2021/01/24 03:41:45;;;;;;;335.63;48.30;;;5.10;95.80;;;;;;5016006;28;20208;-66
2021/01/24 03:44:12;;;;;;;533.93;62.43;;;5.10;95.80;;;;;;5019891;28;20203;-66
2021/01/24 03:46:39;;;;;;;442.50;58.03;;;5.10;95.80;;;;;;5024296;28;20337;-66
2021/01/24 03:49:06;;;;;;;706.03;78.67;;;5.00;95.70;;;;;;5015683;28;20207;-66
2021/01/24 03:51:42;;;;;;;618.83;77.40;;;5.00;95.80;;;;;;5009584;28;20225;-66
2021/01/24 03:54:09;;;;;;;260.60;43.93;;;5.00;95.80;;;;;;5015538;28;20515;-66
2021/01/24 03:56:36;;;;;;;212.47;39.63;;;5.00;95.80;;;;;;5013688;28;20204;-66
2021/01/24 03:59:03;;;;;;;319.87;46.27;;;5.00;95.80;;;;;;5010696;28;20232;-66
2021/01/24 04:01:30;;;;;;;219.60;39.07;;;5.00;95.80;;;;;;5016803;28;20686;-66
2021/01/24 04:03:57;;;;;;;420.47;56.53;;;5.00;95.80;;;;;;5016321;28;20219;-66
2021/01/24 04:06:24;;;;;;;574.03;68.23;;;5.00;95.90;;;;;;5021715;28;20219;-66
2021/01/24 04:08:51;;;;;;;497.87;65.67;;;5.00;95.90;;;;;;5015440;28;20219;-66
2021/01/24 04:11:18;;;;;;;613.27;73.10;;;5.00;95.90;;;;;;5014427;28;20218;-66
2021/01/24 04:13:46;;;;;;;438.97;55.10;;;5.00;95.90;;;;;;5014846;28;20208;-66
2021/01/24 04:16:12;;;;;;;413.90;54.60;;;5.00;95.90;;;;;;4998447;28;20208;-66
2021/01/24 04:18:39;;;;;;;559.87;64.57;;;5.00;95.80;;;;;;5016208;28;20586;-66
2021/01/24 04:21:06;;;;;;;613.50;72.17;;;4.90;95.70;;;;;;5015745;28;20212;-66
2021/01/24 04:23:32;;;;;;;454.97;55.37;;;4.90;95.70;;;;;;4993192;28;20222;-66
2021/01/24 04:25:59;;;;;;;488.90;59.77;;;4.90;95.80;;;;;;5010756;28;20659;-67
2021/01/24 04:28:26;;;;;;;290.23;41.97;;;4.80;95.90;;;;;;5012709;28;20227;-66
2021/01/24 04:30:52;;;;;;;247.23;41.67;;;4.90;96.00;;;;;;5016373;28;20226;-66
2021/01/24 04:33:20;;;;;;;217.23;37.63;;;4.80;96.00;;;;;;5015210;28;20246;-66
2021/01/24 04:35:46;;;;;;;399.80;49.93;;;4.90;96.00;;;;;;5014883;28;20219;-66
2021/01/24 04:38:13;;;;;;;483.73;59.30;;;4.90;96.10;;;;;;5013948;28;20219;-66
2021/01/24 04:40:40;;;;;;;438.00;59.57;;;4.90;96.10;;;;;;5014464;28;20212;-66
2021/01/24 04:43:07;;;;;;;464.87;58.27;;;4.90;96.10;;;;;;4997989;28;20219;-66
2021/01/24 04:45:35;;;;;;;377.33;49.77;;;4.90;96.10;;;;;;5013142;28;20199;-66
2021/01/24 04:48:02;;;;;;;667.50;69.00;;;5.00;96.10;;;;;;5015936;28;20204;-66
2021/01/24 04:50:30;;;;;;;572.20;65.70;;;5.00;96.00;;;;;;5015367;28;20212;-67
2021/01/24 04:52:57;;;;;;;490.80;57.83;;;5.00;96.00;;;;;;5015761;28;20234;-66
2021/01/24 04:55:24;;;;;;;319.53;45.07;;;5.00;96.00;;;;;;5011718;28;20218;-66
2021/01/24 04:57:53;;;;;;;503.83;57.60;;;5.10;96.00;;;;;;5014326;28;20685;-66
2021/01/24 05:00:20;;;;;;;244.00;40.40;;;5.00;96.00;;;;;;5014516;28;20246;-66
2021/01/24 05:02:47;;;;;;;356.60;53.47;;;5.10;96.00;;;;;;5013981;28;20628;-66
2021/01/24 05:05:15;;;;;;;254.73;39.20;;;5.10;96.00;;;;;;5014904;28;20674;-66
2021/01/24 05:07:54;;;;;;;582.63;60.10;;;5.10;96.10;;;;;;5014240;28;20644;-66
2021/01/24 05:10:26;;;;;;;620.37;61.07;;;5.10;96.10;;;;;;5012596;28;20204;-66
2021/01/24 05:12:53;;;;;;;541.53;58.70;;;5.20;96.10;;;;;;5014223;28;20216;-66
2021/01/24 05:15:21;;;;;;;309.37;42.57;;;5.10;96.00;;;;;;5014362;28;20588;-66
2021/01/24 05:17:56;;;;;;;335.53;44.87;;;5.20;96.10;;;;;;5014350;28;20222;-66
2021/01/24 05:20:43;;;;;;;279.70;40.60;;;5.20;96.10;;;;;;5012648;28;20564;-66
2021/01/24 05:23:10;;;;;;;131.67;33.93;;;5.20;96.10;;;;;;5014512;28;20216;-66
2021/01/24 05:25:38;;;;;;;240.63;37.37;;;5.30;96.10;;;;;;5012750;28;20617;-66
2021/01/24 05:28:45;;;;;;;307.70;43.63;;;5.30;96.10;;;;;;5014008;28;20225;-66
2021/01/24 05:31:11;;;;;;;573.20;55.13;;;5.40;96.20;;;;;;4996174;28;20207;-66
2021/01/24 06:02:29;;;;;;;153.97;30.90;;;5.50;95.90;;;;;;5037688;28;20210;-67
2021/01/24 06:04:57;;;;;;;145.13;31.47;;;5.50;96.00;;;;;;5013774;28;20273;-66
2021/01/24 06:07:24;;;;;;;536.87;55.80;;;5.50;95.90;;;;;;5013642;28;20231;-66
2021/01/24 06:09:51;;;;;;;545.20;55.70;;;5.60;96.00;;;;;;5013285;28;20230;-67
2021/01/24 06:12:22;;;;;;;280.17;39.20;;;5.50;95.90;;;;;;5012567;28;20212;-66
2021/01/24 06:14:50;;;;;;;198.37;36.13;;;5.60;95.90;;;;;;5012601;28;20211;-66
2021/01/24 06:17:36;;;;;;;197.87;36.37;;;5.60;95.90;;;;;;5021917;28;20211;-67
2021/01/24 06:20:05;;;;;;;121.70;32.70;;;5.60;95.90;;;;;;5009672;28;20314;-66
2021/01/24 06:22:56;;;;;;;192.37;36.27;;;5.60;95.90;;;;;;5012518;28;20203;-66
2021/01/24 06:25:33;;;;;;;157.43;33.00;;;5.60;95.90;;;;;;5011033;28;20211;-66
2021/01/24 06:28:33;;;;;;;149.67;31.87;;;5.60;95.90;;;;;;4996096;28;20207;-66
2021/01/24 06:30:59;;;;;;;223.13;37.07;;;5.60;95.80;;;;;;5004855;28;20222;-66
2021/01/24 06:33:26;;;;;;;260.10;38.97;;;5.60;95.70;;;;;;5010653;28;20244;-66
2021/01/24 06:36:03;;;;;;;254.13;35.90;;;5.60;95.70;;;;;;5012639;28;20220;-66
2021/01/24 06:38:37;;;;;;;185.57;38.50;;;5.60;95.80;;;;;;5016221;28;20222;-66
2021/01/24 06:41:12;;;;;;;98.27;31.47;;;5.50;95.70;;;;;;5017403;28;20318;-66
2021/01/24 06:43:45;;;;;;;99.93;32.17;;;5.60;95.70;;;;;;5017858;28;20297;-66
2021/01/24 06:46:32;;;;;;;159.80;37.87;;;5.60;95.80;;;;;;5011676;28;20627;-66
2021/01/24 06:48:59;;;;;;;235.07;41.40;;;5.60;95.80;;;;;;5008657;28;20207;-66
2021/01/24 06:51:39;;;;;;;150.97;37.93;;;5.60;95.70;;;;;;5013069;28;20624;-66
2021/01/24 06:54:27;;;;;;;201.17;38.27;;;5.60;95.70;;;;;;5002253;28;20207;-66
2021/01/24 06:57:09;;;;;;;128.97;35.07;;;5.60;95.70;;;;;;5011677;28;20211;-66
2021/01/24 06:59:35;;;;;;;85.63;30.83;;;5.60;95.60;;;;;;5007228;28;20231;-66
2021/01/24 07:02:25;;;;;;;119.07;34.17;;;5.60;95.70;;;;;;5009352;28;20215;-66
2021/01/24 07:05:10;;;;;;;104.57;32.73;;;5.60;95.70;;;;;;5010892;28;20208;-66
2021/01/24 07:07:41;;;;;;;210.07;42.10;;;5.60;95.60;;;;;;5009251;28;20219;-67
2021/01/24 07:10:10;;;;;;;113.37;34.77;;;5.60;95.60;;;;;;5010755;28;20216;-66
2021/01/24 07:12:44;;;;;;;90.13;32.70;;;5.70;95.60;;;;;;5010514;28;20265;-66
2021/01/24 07:15:20;;;;;;;102.50;32.87;;;5.70;95.60;;;;;;5012819;28;20225;-66
2021/01/24 07:18:01;;;;;;;143.47;37.70;;;5.70;95.60;;;;;;5010698;28;20221;-66
2021/01/24 07:20:27;;;;;;;103.03;34.17;;;5.70;95.60;;;;;;5010628;28;20560;-66
2021/01/24 07:22:55;;;;;;;111.93;32.33;;;5.70;95.60;;;;;;5011095;28;20208;-66
2021/01/24 07:25:22;;;;;;;114.30;33.13;;;5.70;95.50;;;;;;5013491;28;20200;-66
2021/01/24 07:27:53;;;;;;;119.17;32.90;;;5.70;95.60;;;;;;5011980;28;20204;-66
2021/01/24 07:30:23;;;;;;;78.60;28.77;;;5.70;95.50;;;;;;5013091;28;20203;-66
2021/01/24 07:32:50;;;;;;;90.93;28.97;;;5.70;95.50;;;;;;5012758;28;20219;-66
2021/01/24 07:35:18;;;;;;;115.90;33.30;;;5.70;95.50;;;;;;5013182;28;20254;-66
2021/01/24 07:37:45;;;;;;;129.33;33.60;;;5.70;95.40;;;;;;5011769;28;20243;-66
2021/01/24 07:40:12;;;;;;;104.60;32.30;;;5.70;95.30;;;;;;5002847;28;20238;-66
2021/01/24 07:42:39;;;;;;;96.43;32.27;;;5.70;95.40;;;;;;4994638;28;20212;-66
2021/01/24 07:45:07;;;;;;;115.80;33.03;;;5.60;95.30;;;;;;5011612;28;20218;-66
2021/01/24 07:47:35;;;;;;;102.90;30.83;;;5.70;95.40;;;;;;5010549;28;20204;-67
2021/01/24 07:50:01;;;;;;;144.43;35.00;;;5.70;95.30;;;;;;5006756;28;20215;-66
2021/01/24 07:52:28;;;;;;;112.20;33.53;;;5.70;95.30;;;;;;5010688;28;20655;-67
2021/01/24 07:54:55;;;;;;;80.73;29.53;;;5.70;95.30;;;;;;5013962;28;20215;-66
2021/01/24 07:57:22;;;;;;;119.50;33.50;;;5.70;95.30;;;;;;5013153;28;20211;-67
2021/01/24 07:59:49;;;;;;;93.33;29.37;;;5.70;95.30;;;;;;5011999;28;20238;-66
2021/01/24 08:02:17;;;;;;;91.27;30.30;;;5.70;95.30;;;;;;5011128;28;20234;-66
2021/01/24 08:04:43;;;;;;;91.33;30.13;;;5.70;95.20;;;;;;5012383;28;20290;-66
2021/01/24 08:07:10;;;;;;;88.20;30.53;;;5.70;95.20;;;;;;5008741;28;20218;-66
2021/01/24 08:09:38;;;;;;;101.50;33.03;;;5.70;95.20;;;;;;5009405;28;20281;-66
2021/01/24 08:12:12;;;;;;;99.40;33.63;;;5.70;95.10;;;;;;5012207;28;20211;-66
2021/01/24 08:14:39;;;;;;;135.67;37.73;;;5.70;95.20;;;;;;5018303;28;20306;-66
2021/01/24 08:17:11;;;;;;;112.73;34.90;;;5.70;95.10;;;;;;5017932;28;20222;-66
2021/01/24 08:19:39;;;;;;;158.20;41.13;;;5.70;95.10;;;;;;4998490;28;20328;-66
2021/01/24 08:22:05;;;;;;;113.73;39.03;;;5.70;95.10;;;;;;5012893;28;20606;-66
2021/01/24 08:24:33;;;;;;;220.07;48.70;;;5.60;95.00;;;;;;5015237;28;20660;-66
2021/01/24 08:27:00;;;;;;;175.23;42.73;;;5.60;95.00;;;;;;5014872;28;20631;-66
2021/01/24 08:29:34;;;;;;;258.40;50.00;;;5.60;95.00;;;;;;5016130;28;20234;-66
2021/01/24 08:32:05;;;;;;;228.00;46.87;;;5.60;95.10;;;;;;5011619;28;20208;-66
2021/01/24 08:34:33;;;;;;;133.57;40.57;;;5.60;95.00;;;;;;5021478;28;20203;-66
2021/01/24 08:37:01;;;;;;;213.40;43.63;;;5.50;95.00;;;;;;5014077;28;20212;-66
2021/01/24 08:39:28;;;;;;;159.27;41.20;;;5.50;95.00;;;;;;5013791;28;20228;-66
2021/01/24 08:41:56;;;;;;;132.10;40.93;;;5.50;95.00;;;;;;5015373;28;20208;-66
2021/01/24 08:44:23;;;;;;;137.83;40.57;;;5.40;95.10;;;;;;5015972;28;20696;-66
2021/01/24 08:46:51;;;;;;;141.83;44.37;;;5.40;95.10;;;;;;5015009;28;20222;-66
2021/01/24 08:49:21;;;;;;;141.70;43.20;;;5.40;95.10;;;;;;5015957;28;20644;-66
2021/01/24 08:51:53;;;;;;;165.03;46.53;;;5.40;95.30;;;;;;5015436;28;20246;-66
2021/01/24 08:54:26;;;;;;;134.90;44.43;;;5.40;95.30;;;;;;5012994;28;20204;-66
2021/01/24 08:57:17;;;;;;;115.87;41.37;;;5.50;95.30;;;;;;5015228;28;20693;-66
2021/01/24 08:59:50;;;;;;;141.67;43.53;;;5.50;95.30;;;;;;5010314;28;20224;-66
2021/01/24 09:02:27;;;;;;;151.20;45.03;;;5.50;95.30;;;;;;5018649;28;20304;-66
2021/01/24 09:04:54;;;;;;;120.93;44.90;;;5.50;95.30;;;;;;5013755;28;20241;-66
2021/01/24 09:07:21;;;;;;;109.00;42.67;;;5.60;95.30;;;;;;5015684;28;20207;-66
2021/01/24 09:09:50;;;;;;;129.00;42.50;;;5.60;95.30;;;;;;5014296;28;20218;-66
2021/01/24 09:12:21;;;;;;;138.13;44.10;;;5.70;95.30;;;;;;5017586;28;20212;-66
2021/01/24 09:14:49;;;;;;;125.60;43.33;;;5.80;95.40;;;;;;5015453;28;20215;-66
2021/01/24 09:17:17;;;;;;;147.50;46.37;;;5.80;95.30;;;;;;4997773;28;20207;-66
2021/01/24 09:19:45;;;;;;;138.17;44.60;;;5.90;95.30;;;;;;5014727;28;20239;-66
2021/01/24 09:22:16;;;;;;;125.73;42.63;;;6.00;95.20;;;;;;5017624;28;20214;-66
2021/01/24 09:24:44;;;;;;;133.93;46.63;;;6.00;95.10;;;;;;5000669;28;20228;-67
2021/01/24 09:27:12;;;;;;;89.87;38.27;;;6.10;95.10;;;;;;5006559;28;20208;-66
2021/01/24 09:29:41;;;;;;;81.17;37.13;;;6.10;95.00;;;;;;5013961;28;20224;-66
2021/01/24 09:32:08;;;;;;;79.47;35.20;;;6.10;94.90;;;;;;5015846;28;20625;-65
2021/01/24 09:34:35;;;;;;;80.03;34.70;;;6.00;94.80;;;;;;5014773;28;20207;-66
2021/01/24 09:37:04;;;;;;;71.30;32.60;;;6.00;94.80;;;;;;5018262;28;20633;-66
2021/01/24 09:39:31;;;;;;;78.17;34.23;;;6.00;94.70;;;;;;4997214;28;20242;-66
2021/01/24 09:41:57;;;;;;;73.10;33.80;;;5.90;94.80;;;;;;5015067;28;20226;-66
2021/01/24 09:44:24;;;;;;;66.03;32.87;;;5.90;94.80;;;;;;5014250;28;20212;-66
2021/01/24 09:46:51;;;;;;;65.43;33.63;;;5.90;94.80;;;;;;5014707;28;20208;-66
2021/01/24 09:49:18;;;;;;;62.80;33.90;;;5.90;94.90;;;;;;5012326;28;20272;-66
2021/01/24 09:51:45;;;;;;;60.43;32.53;;;5.90;94.90;;;;;;5001946;28;20543;-66
2021/01/24 09:54:14;;;;;;;57.93;30.80;;;6.00;95.00;;;;;;5023268;28;20212;-66
2021/01/24 09:56:41;;;;;;;49.80;30.00;;;6.00;95.00;;;;;;5014366;28;20643;-66
2021/01/24 09:59:07;;;;;;;57.60;32.47;;;6.00;95.00;;;;;;4999982;28;20232;-66
2021/01/24 10:01:34;;;;;;;51.63;28.97;;;6.10;95.00;;;;;;5015543;28;20203;-66
2021/01/24 10:04:01;;;;;;;51.90;28.97;;;6.20;95.00;;;;;;5015710;28;20240;-66
2021/01/24 10:06:27;;;;;;;46.87;27.40;;;6.20;94.90;;;;;;5005039;28;20295;-66
2021/01/24 10:08:54;;;;;;;56.10;31.47;;;6.20;94.80;;;;;;5013933;28;20215;-66
2021/01/24 10:11:21;;;;;;;54.10;32.30;;;6.20;94.80;;;;;;5012924;28;20235;-66
2021/01/24 10:13:48;;;;;;;63.70;34.60;;;6.10;94.70;;;;;;5013202;28;20207;-66
2021/01/24 10:16:15;;;;;;;62.37;34.53;;;6.10;94.80;;;;;;5012802;28;20200;-66
2021/01/24 10:18:41;;;;;;;56.37;33.47;;;6.10;94.80;;;;;;5017889;28;20204;-66
2021/01/24 10:21:08;;;;;;;59.93;33.00;;;6.10;94.80;;;;;;5008579;28;20212;-66
2021/01/24 10:23:35;;;;;;;62.13;34.43;;;6.10;94.80;;;;;;5017742;28;20647;-66
2021/01/24 10:26:02;;;;;;;59.17;33.43;;;6.10;94.80;;;;;;5012155;28;20200;-66
2021/01/24 10:28:33;;;;;;;61.10;35.20;;;6.10;94.90;;;;;;4996972;28;20528;-66
2021/01/24 10:31:00;;;;;;;62.20;32.27;;;6.10;94.90;;;;;;5009829;28;20211;-66
2021/01/24 10:33:27;;;;;;;54.07;31.27;;;6.20;94.90;;;;;;5012062;28;20610;-66
2021/01/24 10:35:53;;;;;;;58.87;31.27;;;6.20;94.90;;;;;;5011850;28;20708;-66
2021/01/24 10:38:21;;;;;;;53.63;29.27;;;6.30;94.90;;;;;;5013008;28;20208;-66
2021/01/24 10:40:49;;;;;;;61.37;31.53;;;6.40;94.80;;;;;;5013376;28;20234;-66
2021/01/24 10:43:15;;;;;;;57.97;31.63;;;6.40;94.80;;;;;;4995040;28;20210;-66
2021/01/24 10:45:42;;;;;;;56.07;30.47;;;6.40;94.80;;;;;;5013014;28;20243;-66
2021/01/24 10:48:10;;;;;;;56.33;29.83;;;6.40;94.80;;;;;;5013918;28;20208;-66
2021/01/24 10:50:38;;;;;;;59.77;29.40;;;6.50;94.80;;;;;;5011911;28;20219;-66
2021/01/24 10:53:05;;;;;;;58.63;28.77;;;6.50;94.80;;;;;;5020026;28;20220;-66
2021/01/24 10:55:33;;;;;;;55.37;28.87;;;6.50;94.80;;;;;;5013759;28;20203;-66
2021/01/24 10:58:00;;;;;;;56.53;29.13;;;6.50;94.80;;;;;;5012685;28;20215;-66
2021/01/24 11:00:27;;;;;;;54.73;28.50;;;6.50;94.70;;;;;;5014101;28;20232;-66
2021/01/24 11:02:55;;;;;;;51.27;28.57;;;6.50;94.80;;;;;;5013192;28;20254;-66
2021/01/24 11:05:22;;;;;;;57.00;28.83;;;6.50;94.80;;;;;;5010732;28;20289;-66
2021/01/24 11:07:49;;;;;;;54.90;29.60;;;6.60;94.80;;;;;;4994889;28;20216;-66
2021/01/24 11:10:18;;;;;;;56.43;28.77;;;6.60;94.70;;;;;;5022354;28;20282;-66
2021/01/24 11:12:45;;;;;;;53.83;28.57;;;6.60;94.70;;;;;;5004916;28;20226;-66
2021/01/24 11:15:12;;;;;;;50.90;27.53;;;6.60;94.70;;;;;;5011959;28;20218;-66
2021/01/24 11:17:39;;;;;;;58.73;29.00;;;6.60;94.70;;;;;;5011254;28;20211;-66
2021/01/24 11:20:08;;;;;;;50.97;28.50;;;6.60;94.70;;;;;;5010723;28;20232;-66
2021/01/24 11:22:39;;;;;;;58.27;30.20;;;6.70;94.70;;;;;;5008991;28;20294;-66
2021/01/24 11:25:07;;;;;;;57.33;28.93;;;6.70;94.60;;;;;;5008524;28;20350;-66
2021/01/24 11:27:34;;;;;;;54.97;28.63;;;6.70;94.60;;;;;;5011021;28;20210;-65
2021/01/24 11:30:04;;;;;;;59.70;32.67;;;6.70;94.60;;;;;;5011719;28;20229;-64
2021/01/24 11:32:31;;;;;;;60.47;29.77;;;6.70;94.60;;;;;;5010992;28;20287;-64
2021/01/24 11:35:12;;;;;;;54.77;30.40;;;6.70;94.60;;;;;;4996537;28;20218;-64
2021/01/24 11:37:40;;;;;;;67.33;31.40;;;6.70;94.60;;;;;;5010621;28;20225;-64
2021/01/24 11:40:08;;;;;;;58.60;31.10;;;6.70;94.60;;;;;;5011623;28;20228;-64
2021/01/24 11:42:36;;;;;;;52.80;30.30;;;6.80;94.60;;;;;;5013055;28;20252;-64
2021/01/24 11:45:04;;;;;;;59.20;31.33;;;6.80;94.60;;;;;;4994460;28;20204;-64
2021/01/24 11:47:31;;;;;;;58.57;29.97;;;6.80;94.60;;;;;;5013085;28;20247;-63
2021/01/24 11:49:58;;;;;;;62.30;32.20;;;6.80;94.50;;;;;;5014307;28;20212;-63
2021/01/24 11:52:25;;;;;;;57.87;30.50;;;6.90;94.50;;;;;;5016464;28;20302;-64
2021/01/24 11:54:51;;;;;;;51.97;30.03;;;6.90;94.50;;;;;;5014405;28;20225;-64
2021/01/24 11:57:18;;;;;;;55.77;30.80;;;7.00;94.50;;;;;;5014384;28;20215;-64
2021/01/24 11:59:44;;;;;;;49.17;30.40;;;7.10;94.40;;;;;;5016407;28;20242;-64
2021/01/24 12:02:11;;;;;;;45.80;27.93;;;7.20;94.40;;;;;;5016494;28;20697;-64
2021/01/24 12:04:38;;;;;;;35.40;24.03;;;7.30;94.30;;;;;;5021144;28;20239;-64
2021/01/24 12:07:05;;;;;;;30.23;22.33;;;7.40;94.10;;;;;;5016093;28;20286;-64
2021/01/24 12:09:32;;;;;;;35.03;23.90;;;7.50;94.00;;;;;;5015511;28;20215;-64
2021/01/24 12:11:58;;;;;;;32.00;22.80;;;7.50;93.90;;;;;;5015862;28;20211;-64
2021/01/24 12:14:25;;;;;;;30.27;21.17;;;7.60;93.90;;;;;;5015114;28;20207;-64
2021/01/24 12:16:52;;;;;;;36.60;22.80;;;7.60;93.70;;;;;;5014425;28;20207;-63
2021/01/24 12:19:19;;;;;;;34.87;22.93;;;7.60;93.60;;;;;;4987462;28;20321;-64
2021/01/24 12:21:46;;;;;;;39.47;25.13;;;7.70;93.60;;;;;;5017265;28;20225;-64
2021/01/24 12:24:13;;;;;;;37.07;24.53;;;7.70;93.50;;;;;;5014582;28;20230;-64
2021/01/24 12:26:40;;;;;;;39.47;25.80;;;7.80;93.40;;;;;;5022673;28;20328;-63
2021/01/24 12:29:06;;;;;;;39.77;24.57;;;7.90;93.30;;;;;;5018300;28;20235;-64
2021/01/24 12:31:33;;;;;;;38.80;27.20;;;8.00;93.30;;;;;;5015664;28;20204;-64
2021/01/24 12:34:00;;;;;;;37.87;25.93;;;8.10;93.20;;;;;;5016054;28;20223;-64
2021/01/24 12:36:26;;;;;;;32.13;23.73;;;8.30;93.00;;;;;;5023386;28;20226;-63
2021/01/24 12:38:54;;;;;;;35.03;25.90;;;8.40;92.80;;;;;;5015584;28;20207;-64
2021/01/24 12:41:20;;;;;;;27.77;22.70;;;8.50;92.70;;;;;;5015487;28;20226;-64
2021/01/24 12:43:47;;;;;;;28.53;22.07;;;8.50;92.60;;;;;;5016025;28;20208;-63
2021/01/24 12:46:13;;;;;;;29.10;22.70;;;8.50;92.40;;;;;;5015905;28;20221;-64
2021/01/24 12:48:40;;;;;;;27.87;19.80;;;8.50;92.30;;;;;;5019568;28;20207;-64
2021/01/24 12:51:07;;;;;;;28.07;20.83;;;8.40;92.30;;;;;;5016499;28;20562;-64
2021/01/24 12:53:40;;;;;;;25.20;20.47;;;8.30;92.30;;;;;;4998446;28;20222;-64
2021/01/24 12:56:06;;;;;;;27.00;20.23;;;8.30;92.20;;;;;;5001525;28;20219;-64
2021/01/24 12:58:33;;;;;;;29.10;21.40;;;8.30;92.20;;;;;;5014992;28;20216;-64
2021/01/24 13:00:59;;;;;;;27.83;20.27;;;8.30;92.20;;;;;;5015310;28;20575;-63
2021/01/24 13:03:26;;;;;;;30.53;23.80;;;8.30;92.20;;;;;;5014577;28;20331;-64
2021/01/24 13:05:53;;;;;;;29.60;22.03;;;8.50;92.20;;;;;;5014735;28;20265;-63
2021/01/24 13:08:21;;;;;;;25.17;20.33;;;8.50;92.10;;;;;;5014370;28;20208;-64
2021/01/24 13:10:48;;;;;;;28.17;21.27;;;8.60;91.90;;;;;;5015411;28;20220;-63